createdAt,value
2023-01-21T00:01:23.175Z,102516.41
2023-01-21T00:03:51.448Z,102435.94
2023-01-21T00:06:19.758Z,102488.59
2023-01-21T00:08:49.340Z,102519.94
2023-01-21T00:11:18.029Z,102518.66
2023-01-21T00:13:46.493Z,102525.75
2023-01-21T00:16:15.041Z,102522.47
2023-01-21T00:18:43.450Z,102520.59
2023-01-21T00:21:11.745Z,102525.34
2023-01-21T00:23:40.019Z,102538.69
2023-01-21T00:26:12.510Z,102536.53
2023-01-21T00:28:41.782Z,102539.94
2023-01-21T00:31:11.958Z,102544.75
2023-01-21T00:33:40.468Z,102555.94
2023-01-21T00:36:11.732Z,102564.03
2023-01-21T00:38:40.420Z,102569.09
2023-01-21T00:41:12.521Z,102565.69
2023-01-21T00:43:42.070Z,102570.53
2023-01-21T00:46:12.024Z,102572.75
2023-01-21T00:48:40.731Z,102572.19
2023-01-21T00:51:09.903Z,102581.09
2023-01-21T00:53:41.838Z,102576.59
2023-01-21T00:56:13.918Z,102574.81
2023-01-21T00:58:43.392Z,102567.63
2023-01-21T01:01:13.681Z,102583.53
2023-01-21T01:03:42.797Z,102577.19
2023-01-21T01:06:13.911Z,102488.53
2023-01-21T01:08:43.786Z,102597.41
2023-01-21T01:11:14.693Z,102587.00
2023-01-21T01:13:43.423Z,102594.78
2023-01-21T01:16:15.643Z,102586.22
2023-01-21T01:18:44.571Z,102495.03
2023-01-21T01:21:15.390Z,102587.59
2023-01-21T01:23:44.861Z,102599.13
2023-01-21T01:26:18.067Z,102597.19
2023-01-21T01:28:46.932Z,102600.63
2023-01-21T01:31:17.893Z,102614.31
2023-01-21T01:33:47.284Z,102609.88
2023-01-21T01:36:18.210Z,102235.81
2023-01-21T01:38:47.527Z,102622.81
2023-01-21T01:41:20.230Z,102631.63
2023-01-21T01:43:57.318Z,102628.03
2023-01-21T01:46:27.850Z,102630.47
2023-01-21T01:49:04.141Z,102553.31
2023-01-21T01:51:45.929Z,102609.09
2023-01-21T01:54:19.756Z,102651.81
2023-01-21T01:56:53.540Z,102656.22
2023-01-21T01:59:22.194Z,102668.47
2023-01-21T02:01:50.848Z,102672.47
2023-01-21T02:04:24.689Z,102672.25
2023-01-21T02:06:55.853Z,102630.66
2023-01-21T02:09:29.593Z,102669.25
2023-01-21T02:12:01.553Z,102679.34
2023-01-21T02:14:30.808Z,102682.06
2023-01-21T02:17:14.410Z,102683.44
2023-01-21T02:20:21.724Z,102681.81
2023-01-21T02:23:00.451Z,102691.44
2023-01-21T02:26:17.683Z,102705.69
2023-01-21T02:29:29.994Z,102717.59
2023-01-21T02:32:51.428Z,102716.06
2023-01-21T02:35:26.022Z,102724.47
2023-01-21T02:38:02.298Z,102718.50
2023-01-21T02:40:39.715Z,102723.81
2023-01-21T02:43:14.875Z,102713.38
2023-01-21T02:45:50.958Z,102694.47
2023-01-21T02:48:29.436Z,102741.50
2023-01-21T02:50:58.064Z,102748.84
2023-01-21T02:53:29.085Z,102746.97
2023-01-21T02:56:02.604Z,102755.22
2023-01-21T02:58:35.469Z,102750.56
2023-01-21T03:01:15.949Z,102720.63
2023-01-21T03:03:58.400Z,102742.13
2023-01-21T03:06:50.961Z,102751.47
2023-01-21T03:09:24.188Z,102731.59
2023-01-21T03:12:09.070Z,102761.03
2023-01-21T03:15:00.476Z,102751.47
2023-01-21T03:17:37.539Z,102742.03
2023-01-21T03:20:12.700Z,102709.13
2023-01-21T03:22:41.592Z,102767.00
2023-01-21T03:25:13.105Z,102760.94
2023-01-21T03:27:44.339Z,102737.38
2023-01-21T03:30:17.191Z,102765.28
2023-01-21T03:32:50.611Z,102749.25
2023-01-21T03:35:26.262Z,102754.19
2023-01-21T03:37:59.630Z,102726.78
2023-01-21T03:40:31.940Z,102772.41
2023-01-21T03:43:00.438Z,102772.47
2023-01-21T03:45:41.060Z,102783.84
2023-01-21T03:48:15.345Z,102777.28
2023-01-21T03:50:51.002Z,102620.47
2023-01-21T03:53:19.551Z,102779.13
2023-01-21T03:55:51.068Z,102774.34
2023-01-21T03:58:19.577Z,102759.59
2023-01-21T04:00:49.263Z,102767.06
2023-01-21T04:03:17.629Z,102780.31
2023-01-21T04:05:47.305Z,102781.97
2023-01-21T04:08:15.610Z,102792.97
2023-01-21T04:10:44.167Z,102789.69
2023-01-21T04:13:12.486Z,102795.75
2023-01-21T04:15:40.778Z,102788.81
2023-01-21T04:18:09.155Z,102798.38
2023-01-21T04:20:37.950Z,102798.38
2023-01-21T04:23:07.707Z,102793.19
2023-01-21T04:25:35.987Z,102799.94
2023-01-21T04:28:04.497Z,102790.31
2023-01-21T04:30:32.799Z,102785.19
2023-01-21T04:33:01.134Z,102740.56
2023-01-21T04:35:29.587Z,102781.41
2023-01-21T04:37:57.924Z,102814.44
2023-01-21T04:40:27.627Z,102819.44
2023-01-21T04:42:56.017Z,102830.63
2023-01-21T04:45:24.353Z,102814.44
2023-01-21T04:47:52.655Z,102810.84
2023-01-21T04:50:21.751Z,102814.00
2023-01-21T04:52:50.008Z,102822.06
2023-01-21T04:55:18.742Z,102825.94
2023-01-21T04:57:48.471Z,102828.47
2023-01-21T05:00:19.434Z,102807.84
2023-01-21T05:02:47.890Z,102701.81
2023-01-21T05:05:16.340Z,102830.19
2023-01-21T05:07:44.799Z,102790.19
2023-01-21T05:10:18.092Z,102824.25
2023-01-21T05:12:48.530Z,102826.06
2023-01-21T05:15:17.228Z,102834.06
2023-01-21T05:17:45.522Z,102833.63
2023-01-21T05:20:14.410Z,102768.06
2023-01-21T05:22:42.715Z,102832.09
2023-01-21T05:25:11.368Z,102844.69
2023-01-21T05:27:39.648Z,102851.75
2023-01-21T05:30:11.421Z,102854.16
2023-01-21T05:32:40.890Z,102860.72
2023-01-21T05:35:12.099Z,102859.75
2023-01-21T05:37:43.325Z,102847.31
2023-01-21T05:40:13.394Z,102854.16
2023-01-21T05:42:41.931Z,102862.34
2023-01-21T05:45:13.623Z,102865.88
2023-01-21T05:47:42.101Z,102866.50
2023-01-21T05:50:12.416Z,102871.47
2023-01-21T05:52:41.329Z,102730.72
2023-01-21T05:55:10.085Z,102765.94
2023-01-21T05:57:38.418Z,102878.69
2023-01-21T06:00:08.708Z,102886.28
2023-01-21T06:02:38.409Z,102892.56
2023-01-21T06:05:08.101Z,102892.03
2023-01-21T06:07:36.438Z,102901.41
2023-01-21T06:10:05.422Z,102894.19
2023-01-21T06:12:33.800Z,102914.28
2023-01-21T06:15:02.056Z,102913.41
2023-01-21T06:17:30.405Z,102919.78
2023-01-21T06:20:00.091Z,102922.84
2023-01-21T06:22:28.373Z,102923.59
2023-01-21T06:24:56.682Z,102925.31
2023-01-21T06:27:25.096Z,102929.34
2023-01-21T06:29:53.355Z,102837.63
2023-01-21T06:32:22.049Z,102923.94
2023-01-21T06:34:50.323Z,102941.34
2023-01-21T06:37:20.027Z,102938.91
2023-01-21T06:39:48.417Z,102941.44
2023-01-21T06:42:17.929Z,102941.59
2023-01-21T06:44:46.294Z,102945.03
2023-01-21T06:47:15.145Z,102917.72
2023-01-21T06:49:43.859Z,102914.19
2023-01-21T06:52:12.224Z,102950.34
2023-01-21T06:54:43.248Z,102952.97
2023-01-21T06:57:12.035Z,102912.84
2023-01-21T06:59:40.455Z,102967.75
2023-01-21T07:02:10.430Z,102972.88
2023-01-21T07:04:38.755Z,102971.19
2023-01-21T07:07:07.816Z,102975.50
2023-01-21T07:09:36.121Z,102975.50
2023-01-21T07:12:06.294Z,102946.31
2023-01-21T07:14:34.668Z,102974.97
2023-01-21T07:17:03.122Z,102959.09
2023-01-21T07:19:31.369Z,102978.38
2023-01-21T07:22:02.087Z,102950.91
2023-01-21T07:24:30.460Z,102977.16
2023-01-21T07:26:58.780Z,102994.06
2023-01-21T07:29:29.443Z,103003.75
2023-01-21T07:31:57.742Z,103009.06
2023-01-21T07:34:26.130Z,103005.72
2023-01-21T07:36:54.421Z,102996.06
2023-01-21T07:39:22.864Z,103004.97
2023-01-21T07:41:51.247Z,103009.34
2023-01-21T07:44:19.585Z,103010.34
2023-01-21T07:46:49.368Z,103017.19
2023-01-21T07:49:18.401Z,103028.00
2023-01-21T07:51:47.280Z,103025.94
2023-01-21T07:54:16.304Z,102866.97
2023-01-21T07:56:44.606Z,103020.06
2023-01-21T07:59:13.440Z,103038.75
2023-01-21T08:01:41.883Z,103043.34
2023-01-21T08:04:12.204Z,103050.19
2023-01-21T08:06:41.408Z,103053.22
2023-01-21T08:09:10.860Z,103013.19
2023-01-21T08:11:39.308Z,103056.84
2023-01-21T08:14:07.621Z,103043.75
2023-01-21T08:16:36.123Z,103062.03
2023-01-21T08:19:04.356Z,103069.88
2023-01-21T08:21:33.967Z,103080.06
2023-01-21T08:24:02.908Z,103084.06
2023-01-21T08:26:31.219Z,103073.56
2023-01-21T08:28:59.548Z,103051.78
2023-01-21T08:31:27.915Z,103078.56
2023-01-21T08:33:57.882Z,103083.94
2023-01-21T08:36:26.833Z,103048.78
2023-01-21T08:38:58.556Z,103093.56
2023-01-21T08:41:27.000Z,103060.81
2023-01-21T08:43:55.331Z,103107.53
2023-01-21T08:46:23.654Z,103107.31
2023-01-21T08:48:52.227Z,103115.72
2023-01-21T08:51:20.600Z,103093.69
2023-01-21T08:53:51.223Z,103116.50
2023-01-21T08:56:20.801Z,103123.38
2023-01-21T08:58:49.077Z,103117.25
2023-01-21T09:01:17.489Z,103132.81
2023-01-21T09:03:49.101Z,103120.63
2023-01-21T09:06:17.400Z,103129.19
2023-01-21T09:08:45.716Z,103121.53
2023-01-21T09:11:14.094Z,103129.50
2023-01-21T09:13:44.836Z,103110.50
2023-01-21T09:16:18.665Z,103073.94
2023-01-21T09:18:47.394Z,103127.47
2023-01-21T09:21:16.836Z,103096.28
2023-01-21T09:23:48.200Z,103128.59
2023-01-21T09:26:19.016Z,103129.75
2023-01-21T09:28:54.408Z,103130.00
2023-01-21T09:31:23.958Z,103128.84
2023-01-21T09:33:55.640Z,103127.47
2023-01-21T09:36:26.212Z,103129.44
2023-01-21T09:38:54.838Z,103137.34
2023-01-21T09:41:29.087Z,103144.38
2023-01-21T09:44:16.073Z,103148.31
2023-01-21T09:46:52.506Z,103153.78
2023-01-21T09:49:24.237Z,103157.03
2023-01-21T09:52:03.380Z,103165.78
2023-01-21T09:54:34.558Z,103166.41
2023-01-21T09:57:27.657Z,103157.31
2023-01-21T10:00:13.437Z,103158.81
2023-01-21T10:02:51.286Z,103126.69
2023-01-21T10:05:42.564Z,103155.97
2023-01-21T10:08:19.295Z,103168.13
2023-01-21T10:10:53.405Z,103176.34
2023-01-21T10:13:39.700Z,103157.53
2023-01-21T10:16:19.135Z,103184.50
2023-01-21T10:18:51.784Z,103182.91
2023-01-21T10:21:33.367Z,103194.16
2023-01-21T10:24:08.007Z,103179.69
2023-01-21T10:26:36.708Z,103178.19
2023-01-21T10:29:05.763Z,103147.66
2023-01-21T10:31:41.797Z,103175.47
2023-01-21T10:34:15.056Z,103177.22
2023-01-21T10:36:55.385Z,103174.25
2023-01-21T10:39:40.416Z,103172.47
2023-01-21T10:42:23.649Z,103164.72
2023-01-21T10:45:00.976Z,103171.09
2023-01-21T10:47:40.926Z,103161.03
2023-01-21T10:50:28.977Z,103194.81
2023-01-21T10:53:02.348Z,103180.84
2023-01-21T10:56:03.284Z,103164.53
2023-01-21T10:58:37.645Z,103155.50
2023-01-21T11:01:13.700Z,103200.59
2023-01-21T11:03:46.137Z,103203.78
2023-01-21T11:06:19.187Z,103200.34
2023-01-21T11:08:52.547Z,103206.59
2023-01-21T11:11:28.394Z,103192.41
2023-01-21T11:13:57.245Z,103186.16
2023-01-21T11:16:46.483Z,103199.53
2023-01-21T11:19:18.815Z,103190.09
2023-01-21T11:22:01.559Z,103198.28
2023-01-21T11:24:32.084Z,103206.19
2023-01-21T11:27:02.349Z,103211.28
2023-01-21T11:29:42.004Z,103192.69
2023-01-21T11:32:20.645Z,103213.66
2023-01-21T11:34:52.037Z,103220.19
2023-01-21T11:37:25.200Z,103217.41
2023-01-21T11:39:57.263Z,103220.59
2023-01-21T11:42:26.198Z,103223.41
2023-01-21T11:44:57.564Z,103227.13
2023-01-21T11:47:38.886Z,103218.78
2023-01-21T11:50:16.757Z,103219.19
2023-01-21T11:52:45.438Z,103214.72
2023-01-21T11:55:24.745Z,103215.69
2023-01-21T11:57:55.441Z,103216.06
2023-01-21T12:00:25.337Z,103213.44
2023-01-21T12:02:58.211Z,103217.69
2023-01-21T12:05:33.989Z,103202.84
2023-01-21T12:08:04.119Z,103214.59
2023-01-21T12:10:36.133Z,103204.44
2023-01-21T12:13:24.409Z,103200.16
2023-01-21T12:16:29.034Z,103196.06
2023-01-21T12:19:33.040Z,103201.22
2023-01-21T12:22:36.655Z,103196.66
2023-01-21T12:25:26.535Z,103188.09
2023-01-21T12:28:16.942Z,103173.28
2023-01-21T12:30:57.775Z,103180.25
2023-01-21T12:33:46.518Z,103198.13
2023-01-21T12:36:20.534Z,103176.34
2023-01-21T12:38:57.343Z,103176.72
2023-01-21T12:41:30.749Z,103182.03
2023-01-21T12:44:15.473Z,103182.75
2023-01-21T12:46:48.617Z,103175.91
2023-01-21T12:49:22.040Z,103186.72
2023-01-21T12:51:55.619Z,103184.09
2023-01-21T12:54:37.151Z,103178.22
2023-01-21T12:57:17.701Z,103186.91
2023-01-21T12:59:53.527Z,103187.00
2023-01-21T13:02:30.043Z,103179.78
2023-01-21T13:05:04.753Z,103148.72
2023-01-21T13:07:44.752Z,103191.19
2023-01-21T13:10:23.299Z,103178.16
2023-01-21T13:12:57.282Z,103179.91
2023-01-21T13:15:31.421Z,103172.81
2023-01-21T13:18:05.775Z,103149.53
2023-01-21T13:20:41.429Z,103197.63
2023-01-21T13:23:16.833Z,103198.50
2023-01-21T13:25:55.354Z,103198.56
2023-01-21T13:28:31.657Z,103195.53
2023-01-21T13:31:09.085Z,103188.53
2023-01-21T13:33:48.087Z,103191.06
2023-01-21T13:36:40.343Z,103194.78
2023-01-21T13:39:22.761Z,103196.28
2023-01-21T13:42:08.743Z,103181.00
2023-01-21T13:45:08.586Z,103193.63
2023-01-21T13:48:14.302Z,103189.66
2023-01-21T13:50:58.748Z,103153.09
2023-01-21T13:53:44.675Z,103167.50
2023-01-21T13:56:41.006Z,103201.06
2023-01-21T13:59:17.602Z,103203.34
2023-01-21T14:01:50.821Z,103100.81
2023-01-21T14:04:26.859Z,103207.53
2023-01-21T14:07:02.035Z,103194.31
2023-01-21T14:09:38.389Z,103215.91
2023-01-21T14:12:13.404Z,103206.44
2023-01-21T14:15:19.116Z,103198.38
2023-01-21T14:18:15.393Z,103204.88
2023-01-21T14:21:08.792Z,103217.38
2023-01-21T14:23:55.680Z,103221.09
2023-01-21T14:26:54.418Z,103216.06
2023-01-21T14:29:34.877Z,103219.44
2023-01-21T14:32:15.431Z,103184.00
2023-01-21T14:34:55.426Z,103180.66
2023-01-21T14:37:30.837Z,103232.69
2023-01-21T14:40:11.100Z,103224.50
2023-01-21T14:42:46.257Z,103230.50
2023-01-21T14:45:16.699Z,103208.22
2023-01-21T14:47:48.247Z,103236.66
2023-01-21T14:50:47.111Z,103233.63
2023-01-21T14:53:23.917Z,103203.22
2023-01-21T14:56:10.603Z,103243.31
2023-01-21T14:58:39.592Z,103143.97
2023-01-21T15:01:08.272Z,103254.31
2023-01-21T15:03:49.536Z,103251.53
2023-01-21T15:06:23.364Z,103241.00
2023-01-21T15:08:54.882Z,103253.22
2023-01-21T15:11:30.357Z,103248.34
2023-01-21T15:14:13.488Z,103256.28
2023-01-21T15:16:43.532Z,103257.56
2023-01-21T15:19:34.568Z,103261.09
2023-01-21T15:22:18.338Z,103246.44
2023-01-21T15:25:34.266Z,103248.97
2023-01-21T15:28:43.784Z,103287.22
2023-01-21T15:31:40.015Z,103260.81
2023-01-21T15:34:15.632Z,103268.41
2023-01-21T15:36:57.107Z,103274.50
2023-01-21T15:39:32.516Z,103264.66
2023-01-21T15:42:17.371Z,103258.91
2023-01-21T15:45:23.593Z,103266.75
2023-01-21T15:48:14.043Z,103272.91
2023-01-21T15:50:49.900Z,103271.19
2023-01-21T15:53:39.817Z,103274.31
2023-01-21T15:56:36.791Z,103283.72
2023-01-21T15:59:21.747Z,103286.09
2023-01-21T16:02:10.255Z,103296.09
2023-01-21T16:04:47.414Z,103292.34
2023-01-21T16:07:26.190Z,103294.59
2023-01-21T16:10:07.928Z,103283.34
2023-01-21T16:12:47.824Z,103292.53
2023-01-21T16:15:26.656Z,103299.53
2023-01-21T16:18:09.214Z,103286.91
2023-01-21T16:20:37.943Z,103298.44
2023-01-21T16:23:08.919Z,103302.88
2023-01-21T16:25:47.524Z,103303.16
2023-01-21T16:28:16.211Z,103300.25
2023-01-21T16:30:55.716Z,103301.84
2023-01-21T16:33:24.335Z,103303.25
2023-01-21T16:35:56.190Z,103294.09
2023-01-21T16:38:27.539Z,103300.19
2023-01-21T16:41:25.245Z,103295.19
2023-01-21T16:43:57.074Z,103271.28
2023-01-21T16:46:28.534Z,103300.03
2023-01-21T16:48:58.656Z,103299.91
2023-01-21T16:51:32.606Z,103298.47
2023-01-21T16:54:27.771Z,103310.34
2023-01-21T16:57:00.970Z,103279.53
2023-01-21T16:59:33.461Z,103296.44
2023-01-21T17:02:02.315Z,103304.56
2023-01-21T17:04:31.467Z,103311.75
2023-01-21T17:07:00.469Z,103318.03
2023-01-21T17:09:33.171Z,103315.69
2023-01-21T17:12:08.663Z,103321.06
2023-01-21T17:14:38.139Z,103325.75
2023-01-21T17:17:09.264Z,103311.88
2023-01-21T17:19:45.732Z,103324.50
2023-01-21T17:22:18.905Z,103320.41
2023-01-21T17:25:02.353Z,103330.88
2023-01-21T17:27:33.421Z,103325.47
2023-01-21T17:30:29.812Z,103326.06
2023-01-21T17:33:00.523Z,103322.78
2023-01-21T17:35:32.966Z,103331.19
2023-01-21T17:38:03.308Z,103338.00
2023-01-21T17:40:34.349Z,103338.44
2023-01-21T17:43:19.302Z,103338.94
2023-01-21T17:45:50.015Z,103329.91
2023-01-21T17:48:27.467Z,103322.16
2023-01-21T17:50:56.643Z,103326.34
2023-01-21T17:53:30.907Z,103334.00
2023-01-21T17:56:05.755Z,103332.75
2023-01-21T17:58:49.411Z,103338.47
2023-01-21T18:01:20.246Z,103272.75
2023-01-21T18:03:48.763Z,103327.78
2023-01-21T18:06:21.785Z,103331.09
2023-01-21T18:08:51.446Z,103322.63
2023-01-21T18:11:20.112Z,103309.63
2023-01-21T18:13:50.307Z,103334.28
2023-01-21T18:16:18.785Z,103340.81
2023-01-21T18:18:47.166Z,103341.19
2023-01-21T18:21:21.336Z,103350.16
2023-01-21T18:23:52.908Z,103339.78
2023-01-21T18:26:34.808Z,103319.56
2023-01-21T18:29:04.634Z,103321.56
2023-01-21T18:31:33.131Z,103346.44
2023-01-21T18:34:01.652Z,103356.78
2023-01-21T18:36:30.636Z,103321.06
2023-01-21T18:38:58.926Z,103331.63
2023-01-21T18:41:27.229Z,103331.75
2023-01-21T18:43:55.659Z,103344.69
2023-01-21T18:46:25.395Z,103361.16
2023-01-21T18:48:54.060Z,103357.22
2023-01-21T18:51:22.501Z,103355.88
2023-01-21T18:53:50.979Z,103361.69
2023-01-21T18:56:19.452Z,103335.84
2023-01-21T18:58:47.825Z,103354.28
2023-01-21T19:01:23.205Z,103365.69
2023-01-21T19:03:55.615Z,103358.53
2023-01-21T19:06:26.025Z,103225.66
2023-01-21T19:08:55.196Z,103367.03
2023-01-21T19:11:23.842Z,103357.00
2023-01-21T19:13:52.655Z,103360.34
2023-01-21T19:16:22.871Z,103350.16
2023-01-21T19:18:51.554Z,103361.69
2023-01-21T19:21:21.221Z,103363.88
2023-01-21T19:23:49.522Z,103366.84
2023-01-21T19:26:18.264Z,103325.16
2023-01-21T19:28:46.555Z,103367.25
2023-01-21T19:31:14.894Z,103367.41
2023-01-21T19:33:45.734Z,103374.41
2023-01-21T19:36:19.752Z,103350.91
2023-01-21T19:38:55.317Z,103333.56
2023-01-21T19:41:24.387Z,103361.16
2023-01-21T19:43:52.843Z,103334.41
2023-01-21T19:46:23.377Z,103356.66
2023-01-21T19:48:53.511Z,103362.00
2023-01-21T19:51:22.029Z,103372.56
2023-01-21T19:53:51.739Z,103357.66
2023-01-21T19:56:24.984Z,103365.63
2023-01-21T19:58:53.439Z,103364.41
2023-01-21T20:01:21.882Z,103365.78
2023-01-21T20:03:59.632Z,103313.09
2023-01-21T20:06:31.733Z,103359.00
2023-01-21T20:09:02.251Z,103334.34
2023-01-21T20:11:30.422Z,103363.16
2023-01-21T20:13:59.090Z,103336.03
2023-01-21T20:16:27.579Z,103366.78
2023-01-21T20:18:56.373Z,103367.59
2023-01-21T20:21:25.003Z,103371.84
2023-01-21T20:23:53.333Z,103373.63
2023-01-21T20:26:27.339Z,103373.22
2023-01-21T20:28:55.736Z,103382.69
2023-01-21T20:31:24.368Z,103368.19
2023-01-21T20:33:53.056Z,103369.09
2023-01-21T20:36:24.406Z,103381.75
2023-01-21T20:38:54.072Z,103372.34
2023-01-21T20:41:24.060Z,103368.19
2023-01-21T20:43:52.458Z,103352.69
2023-01-21T20:46:24.780Z,103342.19
2023-01-21T20:48:53.413Z,103375.09
2023-01-21T20:51:22.255Z,103376.91
2023-01-21T20:53:50.712Z,103379.47
2023-01-21T20:56:26.978Z,103377.09
2023-01-21T20:58:55.470Z,103390.28
2023-01-21T21:01:26.491Z,103383.19
2023-01-21T21:03:54.978Z,103384.13
2023-01-21T21:06:26.150Z,103385.56
2023-01-21T21:08:54.561Z,103375.63
2023-01-21T21:11:25.679Z,103397.84
2023-01-21T21:13:54.275Z,103387.69
2023-01-21T21:16:26.280Z,103384.88
2023-01-21T21:18:56.227Z,103391.22
2023-01-21T21:21:25.327Z,103381.19
2023-01-21T21:23:54.047Z,103381.19
2023-01-21T21:26:26.464Z,103367.31
2023-01-21T21:28:57.268Z,103381.13
2023-01-21T21:31:27.553Z,103381.34
2023-01-21T21:33:55.889Z,103381.47
2023-01-21T21:36:25.056Z,103374.03
2023-01-21T21:38:56.082Z,103361.28
2023-01-21T21:41:44.785Z,103338.94
2023-01-21T21:44:13.963Z,103370.31
2023-01-21T21:47:00.292Z,103374.03
2023-01-21T21:49:29.287Z,103363.16
2023-01-21T21:51:59.775Z,103334.13
2023-01-21T21:54:27.902Z,103375.47
2023-01-21T21:56:58.332Z,103363.53
2023-01-21T21:59:26.749Z,103378.03
2023-01-21T22:01:55.120Z,103367.66
2023-01-21T22:04:23.802Z,103367.47
2023-01-21T22:06:52.051Z,103355.50
2023-01-21T22:09:20.748Z,103381.66
2023-01-21T22:11:49.044Z,103381.75
2023-01-21T22:14:18.895Z,103374.75
2023-01-21T22:16:49.676Z,103384.69
2023-01-21T22:19:18.246Z,103384.06
2023-01-21T22:21:46.755Z,103378.13
2023-01-21T22:24:15.714Z,103385.81
2023-01-21T22:26:44.116Z,103383.19
2023-01-21T22:29:12.891Z,103373.44
2023-01-21T22:31:43.455Z,103381.97
2023-01-21T22:34:12.811Z,103371.13
2023-01-21T22:36:42.084Z,103380.25
2023-01-21T22:39:11.618Z,103373.22
2023-01-21T22:41:39.891Z,103340.44
2023-01-21T22:44:08.259Z,103366.59
2023-01-21T22:46:36.600Z,103371.41
2023-01-21T22:49:06.541Z,103368.72
2023-01-21T22:51:34.971Z,103362.06
2023-01-21T22:54:03.318Z,103329.38
2023-01-21T22:56:50.496Z,103365.28
2023-01-21T22:59:19.940Z,103358.66
2023-01-21T23:01:48.769Z,103353.94
2023-01-21T23:04:18.567Z,103351.00
2023-01-21T23:06:48.673Z,103339.94
2023-01-21T23:09:17.686Z,103341.38
2023-01-21T23:11:45.964Z,103343.66
2023-01-21T23:14:14.534Z,103307.88
2023-01-21T23:16:42.876Z,103343.75
2023-01-21T23:19:11.332Z,103286.72
2023-01-21T23:21:41.406Z,103334.81
2023-01-21T23:24:10.220Z,103342.25
2023-01-21T23:26:38.784Z,103329.00
2023-01-21T23:29:07.150Z,103342.47
2023-01-21T23:31:35.707Z,103332.19
2023-01-21T23:34:04.319Z,103339.13
2023-01-21T23:36:32.651Z,103331.81
2023-01-21T23:39:02.354Z,103329.59
2023-01-21T23:41:30.661Z,103320.53
2023-01-21T23:44:00.857Z,103330.75
2023-01-21T23:46:29.393Z,103316.66
2023-01-21T23:48:57.675Z,103333.84
2023-01-21T23:51:26.204Z,103249.53
2023-01-21T23:53:54.486Z,103322.63
2023-01-21T23:56:26.163Z,103329.00
2023-01-21T23:58:54.652Z,103324.03
